sensor_id;sensor_type;location;lat;lon;timestamp;temperature;humidity
4364;DHT22;15337;48.202;12.770;2022-08-19T00:01:30;20.70;99.90
4364;DHT22;15337;48.202;12.770;2022-08-19T00:03:58;20.70;99.90
4364;DHT22;15337;48.202;12.770;2022-08-19T00:06:26;20.70;99.90
4364;DHT22;15337;48.202;12.770;2022-08-19T00:08:53;20.60;99.90
4364;DHT22;15337;48.202;12.770;2022-08-19T00:11:21;20.70;99.90
4364;DHT22;15337;48.202;12.770;2022-08-19T00:13:48;20.70;99.90
4364;DHT22;15337;48.202;12.770;2022-08-19T00:16:15;20.70;99.90
4364;DHT22;15337;48.202;12.770;2022-08-19T00:18:45;20.70;99.90
4364;DHT22;15337;48.202;12.770;2022-08-19T00:21:12;20.70;99.90
4364;DHT22;15337;48.202;12.770;2022-08-19T00:23:39;20.70;99.90
4364;DHT22;15337;48.202;12.770;2022-08-19T00:26:07;20.70;99.90
4364;DHT22;15337;48.202;12.770;2022-08-19T00:28:34;20.70;99.90
4364;DHT22;15337;48.202;12.770;2022-08-19T00:31:02;20.70;99.90
4364;DHT22;15337;48.202;12.770;2022-08-19T00:33:30;20.70;99.90
4364;DHT22;15337;48.202;12.770;2022-08-19T00:35:59;20.70;99.90
4364;DHT22;15337;48.202;12.770;2022-08-19T00:38:26;20.70;99.90
4364;DHT22;15337;48.202;12.770;2022-08-19T00:40:53;20.70;99.90
4364;DHT22;15337;48.202;12.770;2022-08-19T00:43:22;20.80;99.90
4364;DHT22;15337;48.202;12.770;2022-08-19T00:45:49;20.70;99.90
4364;DHT22;15337;48.202;12.770;2022-08-19T00:48:17;20.70;99.90
4364;DHT22;15337;48.202;12.770;2022-08-19T00:50:45;20.70;99.90
4364;DHT22;15337;48.202;12.770;2022-08-19T00:53:18;20.70;99.90
4364;DHT22;15337;48.202;12.770;2022-08-19T00:55:47;20.70;99.90
4364;DHT22;15337;48.202;12.770;2022-08-19T00:58:16;20.60;99.90
4364;DHT22;15337;48.202;12.770;2022-08-19T01:00:44;20.70;99.90
4364;DHT22;15337;48.202;12.770;2022-08-19T01:03:16;20.70;99.90
4364;DHT22;15337;48.202;12.770;2022-08-19T01:05:44;20.70;99.90
4364;DHT22;15337;48.202;12.770;2022-08-19T01:08:15;20.70;99.90
4364;DHT22;15337;48.202;12.770;2022-08-19T01:10:44;20.70;99.90
4364;DHT22;15337;48.202;12.770;2022-08-19T01:13:13;20.70;99.90
4364;DHT22;15337;48.202;12.770;2022-08-19T01:15:43;20.70;99.90
4364;DHT22;15337;48.202;12.770;2022-08-19T01:18:13;20.80;99.90
4364;DHT22;15337;48.202;12.770;2022-08-19T01:20:42;20.80;99.90
4364;DHT22;15337;48.202;12.770;2022-08-19T01:23:11;20.70;99.90
4364;DHT22;15337;48.202;12.770;2022-08-19T01:25:42;20.80;99.90
4364;DHT22;15337;48.202;12.770;2022-08-19T01:28:15;20.80;99.90
4364;DHT22;15337;48.202;12.770;2022-08-19T01:30:44;20.80;99.90
4364;DHT22;15337;48.202;12.770;2022-08-19T01:33:12;20.80;99.90
4364;DHT22;15337;48.202;12.770;2022-08-19T01:35:40;20.70;99.90
4364;DHT22;15337;48.202;12.770;2022-08-19T01:38:10;20.80;99.90
4364;DHT22;15337;48.202;12.770;2022-08-19T01:40:46;20.80;99.90
4364;DHT22;15337;48.202;12.770;2022-08-19T01:43:13;20.80;99.90
4364;DHT22;15337;48.202;12.770;2022-08-19T01:45:41;20.80;99.90
4364;DHT22;15337;48.202;12.770;2022-08-19T01:48:08;20.80;99.90
4364;DHT22;15337;48.202;12.770;2022-08-19T01:50:35;20.80;99.90
4364;DHT22;15337;48.202;12.770;2022-08-19T01:53:04;20.80;99.90
4364;DHT22;15337;48.202;12.770;2022-08-19T01:55:33;20.80;99.90
4364;DHT22;15337;48.202;12.770;2022-08-19T01:58:05;20.80;99.90
4364;DHT22;15337;48.202;12.770;2022-08-19T02:00:32;20.80;99.90
4364;DHT22;15337;48.202;12.770;2022-08-19T02:02:59;20.80;99.90
4364;DHT22;15337;48.202;12.770;2022-08-19T02:05:27;20.80;99.90
4364;DHT22;15337;48.202;12.770;2022-08-19T02:07:54;20.70;99.90
4364;DHT22;15337;48.202;12.770;2022-08-19T02:10:22;20.80;99.90
4364;DHT22;15337;48.202;12.770;2022-08-19T02:12:50;20.80;99.90
4364;DHT22;15337;48.202;12.770;2022-08-19T02:15:19;20.80;99.90
4364;DHT22;15337;48.202;12.770;2022-08-19T02:17:46;20.80;99.90
4364;DHT22;15337;48.202;12.770;2022-08-19T02:20:14;20.80;99.90
4364;DHT22;15337;48.202;12.770;2022-08-19T02:22:42;20.80;99.90
4364;DHT22;15337;48.202;12.770;2022-08-19T02:25:10;20.80;99.90
4364;DHT22;15337;48.202;12.770;2022-08-19T02:27:37;20.80;99.90
4364;DHT22;15337;48.202;12.770;2022-08-19T02:30:06;20.80;99.90
4364;DHT22;15337;48.202;12.770;2022-08-19T02:32:35;20.80;99.90
4364;DHT22;15337;48.202;12.770;2022-08-19T02:35:03;20.80;99.90
4364;DHT22;15337;48.202;12.770;2022-08-19T02:37:30;20.90;99.90
4364;DHT22;15337;48.202;12.770;2022-08-19T02:40:14;20.80;99.90
4364;DHT22;15337;48.202;12.770;2022-08-19T02:42:43;20.80;99.90
4364;DHT22;15337;48.202;12.770;2022-08-19T02:45:11;20.80;99.90
4364;DHT22;15337;48.202;12.770;2022-08-19T02:47:39;20.80;99.90
4364;DHT22;15337;48.202;12.770;2022-08-19T02:50:07;20.80;99.90
4364;DHT22;15337;48.202;12.770;2022-08-19T02:52:35;20.80;99.90
4364;DHT22;15337;48.202;12.770;2022-08-19T02:55:03;20.80;99.90
4364;DHT22;15337;48.202;12.770;2022-08-19T02:57:32;20.80;99.90
4364;DHT22;15337;48.202;12.770;2022-08-19T02:59:59;20.80;99.90
4364;DHT22;15337;48.202;12.770;2022-08-19T03:02:27;20.80;99.90
4364;DHT22;15337;48.202;12.770;2022-08-19T03:04:55;20.80;99.90
4364;DHT22;15337;48.202;12.770;2022-08-19T03:07:22;20.80;99.90
4364;DHT22;15337;48.202;12.770;2022-08-19T03:09:49;20.80;99.90
4364;DHT22;15337;48.202;12.770;2022-08-19T03:12:15;20.80;99.90
4364;DHT22;15337;48.202;12.770;2022-08-19T03:14:42;20.80;99.90
4364;DHT22;15337;48.202;12.770;2022-08-19T03:17:11;20.80;99.90
4364;DHT22;15337;48.202;12.770;2022-08-19T03:19:38;20.80;99.90
4364;DHT22;15337;48.202;12.770;2022-08-19T03:22:06;20.80;99.90
4364;DHT22;15337;48.202;12.770;2022-08-19T03:24:34;20.80;99.90
4364;DHT22;15337;48.202;12.770;2022-08-19T03:27:01;20.70;99.90
4364;DHT22;15337;48.202;12.770;2022-08-19T03:29:29;20.70;99.90
4364;DHT22;15337;48.202;12.770;2022-08-19T03:31:57;20.70;99.90
4364;DHT22;15337;48.202;12.770;2022-08-19T03:34:29;20.70;99.90
4364;DHT22;15337;48.202;12.770;2022-08-19T03:36:58;20.70;99.90
4364;DHT22;15337;48.202;12.770;2022-08-19T03:39:27;20.70;99.90
4364;DHT22;15337;48.202;12.770;2022-08-19T03:41:54;20.70;99.90
4364;DHT22;15337;48.202;12.770;2022-08-19T03:44:22;20.70;99.90
4364;DHT22;15337;48.202;12.770;2022-08-19T03:46:52;20.60;99.90
4364;DHT22;15337;48.202;12.770;2022-08-19T03:49:20;20.60;99.90
4364;DHT22;15337;48.202;12.770;2022-08-19T03:51:48;20.60;99.90
4364;DHT22;15337;48.202;12.770;2022-08-19T03:54:18;20.60;99.90
4364;DHT22;15337;48.202;12.770;2022-08-19T03:56:48;20.60;99.90
4364;DHT22;15337;48.202;12.770;2022-08-19T03:59:17;20.60;99.90
4364;DHT22;15337;48.202;12.770;2022-08-19T04:01:45;20.60;99.90
4364;DHT22;15337;48.202;12.770;2022-08-19T04:04:12;20.60;99.90
4364;DHT22;15337;48.202;12.770;2022-08-19T04:06:39;20.70;99.90
4364;DHT22;15337;48.202;12.770;2022-08-19T04:09:08;20.70;99.90
4364;DHT22;15337;48.202;12.770;2022-08-19T04:11:38;20.70;99.90
4364;DHT22;15337;48.202;12.770;2022-08-19T04:14:09;20.60;99.90
4364;DHT22;15337;48.202;12.770;2022-08-19T04:16:37;20.70;99.90
4364;DHT22;15337;48.202;12.770;2022-08-19T04:19:05;20.70;99.90
4364;DHT22;15337;48.202;12.770;2022-08-19T04:21:32;20.60;99.90
4364;DHT22;15337;48.202;12.770;2022-08-19T04:23:59;20.70;99.90
4364;DHT22;15337;48.202;12.770;2022-08-19T04:26:28;20.70;99.90
4364;DHT22;15337;48.202;12.770;2022-08-19T04:28:58;20.80;99.90
4364;DHT22;15337;48.202;12.770;2022-08-19T04:31:28;20.70;99.90
4364;DHT22;15337;48.202;12.770;2022-08-19T04:33:57;20.80;99.90
4364;DHT22;15337;48.202;12.770;2022-08-19T04:36:27;20.80;99.90
4364;DHT22;15337;48.202;12.770;2022-08-19T04:38:55;20.80;99.90
4364;DHT22;15337;48.202;12.770;2022-08-19T04:41:22;20.80;99.90
4364;DHT22;15337;48.202;12.770;2022-08-19T04:44:07;20.90;99.90
4364;DHT22;15337;48.202;12.770;2022-08-19T04:46:35;20.90;99.90
4364;DHT22;15337;48.202;12.770;2022-08-19T04:49:04;20.90;99.90
4364;DHT22;15337;48.202;12.770;2022-08-19T04:51:32;20.90;99.90
4364;DHT22;15337;48.202;12.770;2022-08-19T04:54:01;20.90;99.90
4364;DHT22;15337;48.202;12.770;2022-08-19T04:56:28;20.90;99.90
4364;DHT22;15337;48.202;12.770;2022-08-19T04:58:56;20.90;99.90
4364;DHT22;15337;48.202;12.770;2022-08-19T05:01:25;20.90;99.90
4364;DHT22;15337;48.202;12.770;2022-08-19T05:03:55;20.90;99.90
4364;DHT22;15337;48.202;12.770;2022-08-19T05:06:23;20.90;99.90
4364;DHT22;15337;48.202;12.770;2022-08-19T05:08:51;20.90;99.90
4364;DHT22;15337;48.202;12.770;2022-08-19T05:11:19;21.00;99.90
4364;DHT22;15337;48.202;12.770;2022-08-19T05:13:47;21.00;99.90
4364;DHT22;15337;48.202;12.770;2022-08-19T05:16:17;21.00;99.90
4364;DHT22;15337;48.202;12.770;2022-08-19T05:18:44;21.10;99.90
4364;DHT22;15337;48.202;12.770;2022-08-19T05:21:39;21.10;99.90
4364;DHT22;15337;48.202;12.770;2022-08-19T05:24:23;21.10;99.90
4364;DHT22;15337;48.202;12.770;2022-08-19T05:26:53;21.10;99.90
4364;DHT22;15337;48.202;12.770;2022-08-19T05:29:23;21.10;99.90
4364;DHT22;15337;48.202;12.770;2022-08-19T05:31:51;21.10;99.90
4364;DHT22;15337;48.202;12.770;2022-08-19T05:34:19;21.10;99.90
4364;DHT22;15337;48.202;12.770;2022-08-19T05:36:50;21.10;99.90
4364;DHT22;15337;48.202;12.770;2022-08-19T05:39:23;21.10;99.90
4364;DHT22;15337;48.202;12.770;2022-08-19T05:41:52;21.10;99.90
4364;DHT22;15337;48.202;12.770;2022-08-19T05:44:20;21.10;99.90
4364;DHT22;15337;48.202;12.770;2022-08-19T05:46:48;21.20;99.90
4364;DHT22;15337;48.202;12.770;2022-08-19T05:49:19;21.10;99.90
4364;DHT22;15337;48.202;12.770;2022-08-19T05:51:47;21.20;99.90
4364;DHT22;15337;48.202;12.770;2022-08-19T05:54:15;21.20;99.90
4364;DHT22;15337;48.202;12.770;2022-08-19T05:56:43;21.20;99.90
4364;DHT22;15337;48.202;12.770;2022-08-19T05:59:14;21.20;99.90
4364;DHT22;15337;48.202;12.770;2022-08-19T06:01:43;21.30;99.90
4364;DHT22;15337;48.202;12.770;2022-08-19T06:04:10;21.20;99.90
4364;DHT22;15337;48.202;12.770;2022-08-19T06:06:39;21.20;99.90
4364;DHT22;15337;48.202;12.770;2022-08-19T06:09:07;21.20;99.90
4364;DHT22;15337;48.202;12.770;2022-08-19T06:11:39;21.30;99.90
4364;DHT22;15337;48.202;12.770;2022-08-19T06:14:09;21.30;99.90
4364;DHT22;15337;48.202;12.770;2022-08-19T06:16:37;21.20;99.90
4364;DHT22;15337;48.202;12.770;2022-08-19T06:19:07;21.20;99.90
4364;DHT22;15337;48.202;12.770;2022-08-19T06:21:37;21.20;99.90
4364;DHT22;15337;48.202;12.770;2022-08-19T06:24:05;21.30;99.90
4364;DHT22;15337;48.202;12.770;2022-08-19T06:26:33;21.30;99.90
4364;DHT22;15337;48.202;12.770;2022-08-19T06:29:03;21.40;99.90
4364;DHT22;15337;48.202;12.770;2022-08-19T06:31:32;21.40;99.90
4364;DHT22;15337;48.202;12.770;2022-08-19T06:34:00;21.40;99.90
4364;DHT22;15337;48.202;12.770;2022-08-19T06:36:30;21.50;99.90
4364;DHT22;15337;48.202;12.770;2022-08-19T06:39:00;21.60;99.90
4364;DHT22;15337;48.202;12.770;2022-08-19T06:41:28;21.70;99.90
4364;DHT22;15337;48.202;12.770;2022-08-19T06:43:55;21.70;99.90
4364;DHT22;15337;48.202;12.770;2022-08-19T06:46:24;21.70;99.90
4364;DHT22;15337;48.202;12.770;2022-08-19T06:48:52;21.70;99.90
4364;DHT22;15337;48.202;12.770;2022-08-19T06:51:20;21.70;99.90
4364;DHT22;15337;48.202;12.770;2022-08-19T06:53:51;21.80;99.90
4364;DHT22;15337;48.202;12.770;2022-08-19T06:56:20;21.80;99.90
4364;DHT22;15337;48.202;12.770;2022-08-19T06:58:47;21.80;99.90
4364;DHT22;15337;48.202;12.770;2022-08-19T07:01:19;21.80;99.90
4364;DHT22;15337;48.202;12.770;2022-08-19T07:03:48;21.90;99.90
4364;DHT22;15337;48.202;12.770;2022-08-19T07:06:18;21.80;99.90
4364;DHT22;15337;48.202;12.770;2022-08-19T07:08:46;21.80;99.90
4364;DHT22;15337;48.202;12.770;2022-08-19T07:11:16;21.80;99.90
4364;DHT22;15337;48.202;12.770;2022-08-19T07:13:44;21.90;99.90
4364;DHT22;15337;48.202;12.770;2022-08-19T07:16:16;21.90;99.90
4364;DHT22;15337;48.202;12.770;2022-08-19T07:18:44;21.90;99.90
4364;DHT22;15337;48.202;12.770;2022-08-19T07:21:16;21.90;99.90
4364;DHT22;15337;48.202;12.770;2022-08-19T07:23:44;21.90;99.90
4364;DHT22;15337;48.202;12.770;2022-08-19T07:26:13;21.90;99.90
4364;DHT22;15337;48.202;12.770;2022-08-19T07:28:41;22.00;99.90
4364;DHT22;15337;48.202;12.770;2022-08-19T07:31:11;22.00;99.90
4364;DHT22;15337;48.202;12.770;2022-08-19T07:33:38;22.00;99.90
4364;DHT22;15337;48.202;12.770;2022-08-19T07:36:08;22.10;99.90
4364;DHT22;15337;48.202;12.770;2022-08-19T07:38:39;22.10;99.90
4364;DHT22;15337;48.202;12.770;2022-08-19T07:41:08;22.20;99.90
4364;DHT22;15337;48.202;12.770;2022-08-19T07:43:36;22.30;99.90
4364;DHT22;15337;48.202;12.770;2022-08-19T07:46:03;22.40;99.90
4364;DHT22;15337;48.202;12.770;2022-08-19T07:48:30;22.50;99.90
4364;DHT22;15337;48.202;12.770;2022-08-19T07:51:00;22.50;99.90
4364;DHT22;15337;48.202;12.770;2022-08-19T07:53:29;22.50;99.90
4364;DHT22;15337;48.202;12.770;2022-08-19T07:55:58;22.50;99.90
4364;DHT22;15337;48.202;12.770;2022-08-19T07:58:31;22.50;99.90
4364;DHT22;15337;48.202;12.770;2022-08-19T08:00:59;22.50;99.90
4364;DHT22;15337;48.202;12.770;2022-08-19T08:03:27;22.60;99.90
4364;DHT22;15337;48.202;12.770;2022-08-19T08:06:08;22.60;99.90
4364;DHT22;15337;48.202;12.770;2022-08-19T08:08:52;22.60;99.90
4364;DHT22;15337;48.202;12.770;2022-08-19T08:11:40;22.60;99.90
4364;DHT22;15337;48.202;12.770;2022-08-19T08:14:08;22.60;99.90
4364;DHT22;15337;48.202;12.770;2022-08-19T08:16:36;22.70;99.90
4364;DHT22;15337;48.202;12.770;2022-08-19T08:19:04;22.80;99.90
4364;DHT22;15337;48.202;12.770;2022-08-19T08:21:32;22.80;99.90
4364;DHT22;15337;48.202;12.770;2022-08-19T08:23:59;22.80;99.90
4364;DHT22;15337;48.202;12.770;2022-08-19T08:26:26;22.90;99.90
4364;DHT22;15337;48.202;12.770;2022-08-19T08:28:55;23.00;99.90
4364;DHT22;15337;48.202;12.770;2022-08-19T08:31:22;23.10;99.90
4364;DHT22;15337;48.202;12.770;2022-08-19T08:33:49;23.20;99.90
4364;DHT22;15337;48.202;12.770;2022-08-19T08:36:17;23.30;99.90
4364;DHT22;15337;48.202;12.770;2022-08-19T08:38:45;23.40;99.90
4364;DHT22;15337;48.202;12.770;2022-08-19T08:41:18;23.50;99.90
4364;DHT22;15337;48.202;12.770;2022-08-19T08:43:50;23.60;99.90
4364;DHT22;15337;48.202;12.770;2022-08-19T08:46:24;23.80;99.90
4364;DHT22;15337;48.202;12.770;2022-08-19T08:48:56;23.90;99.90
4364;DHT22;15337;48.202;12.770;2022-08-19T08:51:28;24.10;99.90
4364;DHT22;15337;48.202;12.770;2022-08-19T08:53:56;24.10;99.90
4364;DHT22;15337;48.202;12.770;2022-08-19T08:56:23;24.20;99.90
4364;DHT22;15337;48.202;12.770;2022-08-19T08:58:57;24.50;99.90
4364;DHT22;15337;48.202;12.770;2022-08-19T09:01:26;24.70;99.90
4364;DHT22;15337;48.202;12.770;2022-08-19T09:03:53;25.00;99.90
4364;DHT22;15337;48.202;12.770;2022-08-19T09:06:26;25.00;98.70
4364;DHT22;15337;48.202;12.770;2022-08-19T09:09:01;25.00;97.70
4364;DHT22;15337;48.202;12.770;2022-08-19T09:11:47;24.90;97.50
4364;DHT22;15337;48.202;12.770;2022-08-19T09:14:32;25.00;97.80
4364;DHT22;15337;48.202;12.770;2022-08-19T09:17:02;25.10;98.00
4364;DHT22;15337;48.202;12.770;2022-08-19T09:19:33;25.20;98.20
4364;DHT22;15337;48.202;12.770;2022-08-19T09:22:00;25.40;97.40
4364;DHT22;15337;48.202;12.770;2022-08-19T09:24:27;25.60;95.60
4364;DHT22;15337;48.202;12.770;2022-08-19T09:26:54;25.60;95.20
4364;DHT22;15337;48.202;12.770;2022-08-19T09:29:21;25.60;94.10
4364;DHT22;15337;48.202;12.770;2022-08-19T09:31:48;25.70;94.70
4364;DHT22;15337;48.202;12.770;2022-08-19T09:34:17;25.80;93.70
4364;DHT22;15337;48.202;12.770;2022-08-19T09:36:45;25.80;93.20
4364;DHT22;15337;48.202;12.770;2022-08-19T09:39:12;25.90;92.80
4364;DHT22;15337;48.202;12.770;2022-08-19T09:41:39;26.10;92.10
4364;DHT22;15337;48.202;12.770;2022-08-19T09:44:06;26.20;92.00
4364;DHT22;15337;48.202;12.770;2022-08-19T09:46:33;26.40;91.60
4364;DHT22;15337;48.202;12.770;2022-08-19T09:49:01;26.50;91.30
4364;DHT22;15337;48.202;12.770;2022-08-19T09:51:33;26.50;91.70
4364;DHT22;15337;48.202;12.770;2022-08-19T09:54:01;26.50;90.60
4364;DHT22;15337;48.202;12.770;2022-08-19T09:56:29;26.50;90.80
4364;DHT22;15337;48.202;12.770;2022-08-19T09:58:57;26.50;90.40
4364;DHT22;15337;48.202;12.770;2022-08-19T10:01:27;26.60;90.00
4364;DHT22;15337;48.202;12.770;2022-08-19T10:03:56;26.70;89.30
4364;DHT22;15337;48.202;12.770;2022-08-19T10:06:26;26.80;89.00
4364;DHT22;15337;48.202;12.770;2022-08-19T10:08:56;26.90;88.10
4364;DHT22;15337;48.202;12.770;2022-08-19T10:11:23;27.20;87.40
4364;DHT22;15337;48.202;12.770;2022-08-19T10:13:51;27.50;87.20
4364;DHT22;15337;48.202;12.770;2022-08-19T10:16:21;27.50;85.70
4364;DHT22;15337;48.202;12.770;2022-08-19T10:18:48;27.30;85.30
4364;DHT22;15337;48.202;12.770;2022-08-19T10:21:17;27.20;84.70
4364;DHT22;15337;48.202;12.770;2022-08-19T10:23:48;27.20;86.40
4364;DHT22;15337;48.202;12.770;2022-08-19T10:26:19;27.10;85.40
4364;DHT22;15337;48.202;12.770;2022-08-19T10:28:46;27.00;85.50
4364;DHT22;15337;48.202;12.770;2022-08-19T10:31:16;27.20;86.50
4364;DHT22;15337;48.202;12.770;2022-08-19T10:33:45;27.40;86.80
4364;DHT22;15337;48.202;12.770;2022-08-19T10:36:14;27.50;84.60
4364;DHT22;15337;48.202;12.770;2022-08-19T10:38:43;27.80;83.50
4364;DHT22;15337;48.202;12.770;2022-08-19T10:41:13;27.80;81.40
4364;DHT22;15337;48.202;12.770;2022-08-19T10:43:42;27.80;81.80
4364;DHT22;15337;48.202;12.770;2022-08-19T10:46:12;27.70;82.60
4364;DHT22;15337;48.202;12.770;2022-08-19T10:48:40;27.60;82.80
4364;DHT22;15337;48.202;12.770;2022-08-19T10:51:07;27.50;80.40
4364;DHT22;15337;48.202;12.770;2022-08-19T10:53:55;27.60;81.20
4364;DHT22;15337;48.202;12.770;2022-08-19T10:56:22;27.70;80.60
4364;DHT22;15337;48.202;12.770;2022-08-19T10:59:08;27.70;80.30
4364;DHT22;15337;48.202;12.770;2022-08-19T11:01:35;27.70;81.60
4364;DHT22;15337;48.202;12.770;2022-08-19T11:04:03;27.60;80.10
4364;DHT22;15337;48.202;12.770;2022-08-19T11:06:34;27.60;79.80
4364;DHT22;15337;48.202;12.770;2022-08-19T11:09:02;27.50;80.30
4364;DHT22;15337;48.202;12.770;2022-08-19T11:11:29;27.50;80.80
4364;DHT22;15337;48.202;12.770;2022-08-19T11:13:56;27.70;80.70
4364;DHT22;15337;48.202;12.770;2022-08-19T11:16:26;27.80;78.90
4364;DHT22;15337;48.202;12.770;2022-08-19T11:18:58;27.90;77.80
4364;DHT22;15337;48.202;12.770;2022-08-19T11:21:27;28.00;78.30
4364;DHT22;15337;48.202;12.770;2022-08-19T11:23:58;27.90;77.50
4364;DHT22;15337;48.202;12.770;2022-08-19T11:26:26;27.90;77.30
4364;DHT22;15337;48.202;12.770;2022-08-19T11:28:53;27.90;78.50
4364;DHT22;15337;48.202;12.770;2022-08-19T11:31:22;27.90;77.80
4364;DHT22;15337;48.202;12.770;2022-08-19T11:33:51;28.00;78.60
4364;DHT22;15337;48.202;12.770;2022-08-19T11:36:20;28.10;77.20
4364;DHT22;15337;48.202;12.770;2022-08-19T11:38:48;28.20;77.00
4364;DHT22;15337;48.202;12.770;2022-08-19T11:41:16;28.40;78.30
4364;DHT22;15337;48.202;12.770;2022-08-19T11:43:43;28.40;77.70
4364;DHT22;15337;48.202;12.770;2022-08-19T11:46:12;28.40;77.80
4364;DHT22;15337;48.202;12.770;2022-08-19T11:48:40;28.40;76.90
4364;DHT22;15337;48.202;12.770;2022-08-19T11:51:11;28.30;77.50
4364;DHT22;15337;48.202;12.770;2022-08-19T11:53:38;28.30;76.50
4364;DHT22;15337;48.202;12.770;2022-08-19T11:56:08;28.10;77.30
4364;DHT22;15337;48.202;12.770;2022-08-19T11:58:36;28.10;77.20
4364;DHT22;15337;48.202;12.770;2022-08-19T12:01:05;28.10;75.70
4364;DHT22;15337;48.202;12.770;2022-08-19T12:03:33;28.20;76.30
4364;DHT22;15337;48.202;12.770;2022-08-19T12:06:04;28.20;75.60
4364;DHT22;15337;48.202;12.770;2022-08-19T12:08:33;28.10;74.50
4364;DHT22;15337;48.202;12.770;2022-08-19T12:11:00;28.10;74.70
4364;DHT22;15337;48.202;12.770;2022-08-19T12:13:28;28.20;74.10
4364;DHT22;15337;48.202;12.770;2022-08-19T12:15:56;28.30;76.20
4364;DHT22;15337;48.202;12.770;2022-08-19T12:18:23;28.30;76.80
4364;DHT22;15337;48.202;12.770;2022-08-19T12:20:52;28.30;73.50
4364;DHT22;15337;48.202;12.770;2022-08-19T12:23:20;28.30;76.20
4364;DHT22;15337;48.202;12.770;2022-08-19T12:25:49;28.70;74.30
4364;DHT22;15337;48.202;12.770;2022-08-19T12:28:18;28.90;74.50
4364;DHT22;15337;48.202;12.770;2022-08-19T12:30:46;28.90;73.00
4364;DHT22;15337;48.202;12.770;2022-08-19T12:33:13;28.90;72.90
4364;DHT22;15337;48.202;12.770;2022-08-19T12:35:41;28.90;73.50
4364;DHT22;15337;48.202;12.770;2022-08-19T12:38:09;28.90;73.00
4364;DHT22;15337;48.202;12.770;2022-08-19T12:40:36;28.80;73.70
4364;DHT22;15337;48.202;12.770;2022-08-19T12:43:07;28.80;73.30
4364;DHT22;15337;48.202;12.770;2022-08-19T12:45:34;28.70;73.70
4364;DHT22;15337;48.202;12.770;2022-08-19T12:48:01;28.70;73.20
4364;DHT22;15337;48.202;12.770;2022-08-19T12:50:28;28.70;72.70
4364;DHT22;15337;48.202;12.770;2022-08-19T12:52:56;28.70;72.80
4364;DHT22;15337;48.202;12.770;2022-08-19T12:55:23;28.60;72.70
4364;DHT22;15337;48.202;12.770;2022-08-19T12:57:51;28.50;72.10
4364;DHT22;15337;48.202;12.770;2022-08-19T13:00:20;28.40;71.80
4364;DHT22;15337;48.202;12.770;2022-08-19T13:02:49;28.30;73.60
4364;DHT22;15337;48.202;12.770;2022-08-19T13:05:19;28.30;73.40
4364;DHT22;15337;48.202;12.770;2022-08-19T13:07:49;28.20;73.90
4364;DHT22;15337;48.202;12.770;2022-08-19T13:10:19;28.20;73.30
4364;DHT22;15337;48.202;12.770;2022-08-19T13:12:48;28.10;73.80
4364;DHT22;15337;48.202;12.770;2022-08-19T13:15:17;28.10;73.60
4364;DHT22;15337;48.202;12.770;2022-08-19T13:17:47;28.10;73.20
4364;DHT22;15337;48.202;12.770;2022-08-19T13:20:15;28.00;72.20
4364;DHT22;15337;48.202;12.770;2022-08-19T13:22:43;28.00;73.40
4364;DHT22;15337;48.202;12.770;2022-08-19T13:25:10;28.00;72.60
4364;DHT22;15337;48.202;12.770;2022-08-19T13:27:38;28.00;73.30
4364;DHT22;15337;48.202;12.770;2022-08-19T13:30:07;28.00;73.30
4364;DHT22;15337;48.202;12.770;2022-08-19T13:32:53;28.10;73.60
4364;DHT22;15337;48.202;12.770;2022-08-19T13:35:42;28.10;73.20
4364;DHT22;15337;48.202;12.770;2022-08-19T13:38:09;28.30;75.40
4364;DHT22;15337;48.202;12.770;2022-08-19T13:40:37;28.30;72.20
4364;DHT22;15337;48.202;12.770;2022-08-19T13:43:04;28.40;72.60
4364;DHT22;15337;48.202;12.770;2022-08-19T13:45:33;28.50;72.80
4364;DHT22;15337;48.202;12.770;2022-08-19T13:48:04;28.60;73.30
4364;DHT22;15337;48.202;12.770;2022-08-19T13:50:32;28.70;71.50
4364;DHT22;15337;48.202;12.770;2022-08-19T13:52:59;28.80;70.50
4364;DHT22;15337;48.202;12.770;2022-08-19T13:55:27;28.80;69.50
4364;DHT22;15337;48.202;12.770;2022-08-19T13:57:56;28.90;68.70
4364;DHT22;15337;48.202;12.770;2022-08-19T14:00:25;28.90;71.90
4364;DHT22;15337;48.202;12.770;2022-08-19T14:02:54;28.90;70.10
4364;DHT22;15337;48.202;12.770;2022-08-19T14:05:26;29.20;70.80
4364;DHT22;15337;48.202;12.770;2022-08-19T14:07:53;29.30;68.20
4364;DHT22;15337;48.202;12.770;2022-08-19T14:10:21;29.60;69.50
4364;DHT22;15337;48.202;12.770;2022-08-19T14:12:48;29.80;68.90
4364;DHT22;15337;48.202;12.770;2022-08-19T14:15:16;30.00;67.50
4364;DHT22;15337;48.202;12.770;2022-08-19T14:17:44;30.20;64.70
4364;DHT22;15337;48.202;12.770;2022-08-19T14:20:15;30.60;67.40
4364;DHT22;15337;48.202;12.770;2022-08-19T14:22:44;31.00;65.50
4364;DHT22;15337;48.202;12.770;2022-08-19T14:25:14;31.20;64.30
4364;DHT22;15337;48.202;12.770;2022-08-19T14:27:42;31.20;61.90
4364;DHT22;15337;48.202;12.770;2022-08-19T14:30:12;31.20;62.60
4364;DHT22;15337;48.202;12.770;2022-08-19T14:32:39;31.20;61.20
4364;DHT22;15337;48.202;12.770;2022-08-19T14:35:09;31.00;61.40
4364;DHT22;15337;48.202;12.770;2022-08-19T14:37:38;30.80;62.10
4364;DHT22;15337;48.202;12.770;2022-08-19T14:40:08;30.50;64.60
4364;DHT22;15337;48.202;12.770;2022-08-19T14:42:35;30.30;63.60
4364;DHT22;15337;48.202;12.770;2022-08-19T14:45:03;30.20;63.60
4364;DHT22;15337;48.202;12.770;2022-08-19T14:47:31;30.00;63.70
4364;DHT22;15337;48.202;12.770;2022-08-19T14:49:58;29.60;64.40
4364;DHT22;15337;48.202;12.770;2022-08-19T14:52:25;29.10;64.80
4364;DHT22;15337;48.202;12.770;2022-08-19T14:54:53;29.00;66.10
4364;DHT22;15337;48.202;12.770;2022-08-19T14:57:21;28.90;67.70
4364;DHT22;15337;48.202;12.770;2022-08-19T14:59:48;28.70;68.10
4364;DHT22;15337;48.202;12.770;2022-08-19T15:02:15;28.50;69.90
4364;DHT22;15337;48.202;12.770;2022-08-19T15:04:43;28.20;70.10
4364;DHT22;15337;48.202;12.770;2022-08-19T15:07:10;28.10;70.80
4364;DHT22;15337;48.202;12.770;2022-08-19T15:09:37;27.90;71.70
4364;DHT22;15337;48.202;12.770;2022-08-19T15:12:04;27.80;72.00
4364;DHT22;15337;48.202;12.770;2022-08-19T15:14:36;27.60;72.10
4364;DHT22;15337;48.202;12.770;2022-08-19T15:17:04;27.40;73.10
4364;DHT22;15337;48.202;12.770;2022-08-19T15:19:32;27.30;73.80
4364;DHT22;15337;48.202;12.770;2022-08-19T15:22:01;27.20;74.80
4364;DHT22;15337;48.202;12.770;2022-08-19T15:24:29;27.00;76.60
4364;DHT22;15337;48.202;12.770;2022-08-19T15:26:55;26.80;77.70
4364;DHT22;15337;48.202;12.770;2022-08-19T15:29:23;26.60;77.50
4364;DHT22;15337;48.202;12.770;2022-08-19T15:31:52;26.50;78.00
4364;DHT22;15337;48.202;12.770;2022-08-19T15:34:20;26.40;77.60
4364;DHT22;15337;48.202;12.770;2022-08-19T15:36:47;26.40;78.20
4364;DHT22;15337;48.202;12.770;2022-08-19T15:39:14;26.40;81.90
4364;DHT22;15337;48.202;12.770;2022-08-19T15:41:42;26.30;83.20